createdAt,value
2023-01-17T00:02:21.309Z,7.60
2023-01-17T00:05:07.588Z,6.80
2023-01-17T00:07:54.023Z,7.88
2023-01-17T00:10:24.417Z,7.47
2023-01-17T00:12:57.441Z,9.63
2023-01-17T00:15:26.332Z,10.95
2023-01-17T00:17:54.609Z,7.07
2023-01-17T00:20:46.813Z,10.70
2023-01-17T00:23:38.670Z,8.52
2023-01-17T00:26:18.382Z,7.40
2023-01-17T00:28:47.249Z,6.90
2023-01-17T00:31:16.128Z,9.63
2023-01-17T00:33:43.887Z,7.10
2023-01-17T00:36:11.806Z,8.02
2023-01-17T00:38:40.434Z,8.68
2023-01-17T00:41:10.392Z,7.97
2023-01-17T00:43:56.553Z,6.13
2023-01-17T00:46:42.896Z,8.30
2023-01-17T00:49:28.881Z,8.35
2023-01-17T00:52:14.841Z,7.63
2023-01-17T00:55:00.661Z,4.70
2023-01-17T00:57:47.086Z,7.47
2023-01-17T01:00:34.190Z,8.40
2023-01-17T01:06:06.247Z,6.65
2023-01-17T01:08:52.550Z,4.97
2023-01-17T01:11:40.224Z,4.05
2023-01-17T01:14:28.989Z,5.40
2023-01-17T01:17:15.163Z,6.63
2023-01-17T01:20:01.313Z,10.40
2023-01-17T01:22:47.232Z,6.85
2023-01-17T01:25:33.444Z,6.57
2023-01-17T01:28:30.462Z,6.60
2023-01-17T01:31:23.964Z,7.80
2023-01-17T01:33:52.835Z,5.95
2023-01-17T01:36:21.080Z,7.82
2023-01-17T01:38:50.323Z,6.15
2023-01-17T01:41:18.163Z,7.40
2023-01-17T01:43:51.302Z,6.63
2023-01-17T01:46:39.943Z,5.82
2023-01-17T01:49:25.779Z,6.28
2023-01-17T01:51:58.581Z,8.25
2023-01-17T01:54:31.563Z,7.55
2023-01-17T01:57:03.539Z,6.75
2023-01-17T01:59:34.151Z,8.60
2023-01-17T02:02:02.286Z,8.40
2023-01-17T02:04:29.970Z,7.57
2023-01-17T02:07:07.470Z,7.15
2023-01-17T02:09:35.107Z,6.43
2023-01-17T02:12:04.456Z,8.82
2023-01-17T02:14:32.053Z,7.78
2023-01-17T02:20:23.156Z,7.97
2023-01-17T02:23:10.421Z,8.70
2023-01-17T02:26:10.474Z,6.53
2023-01-17T02:28:53.162Z,8.75
2023-01-17T02:31:37.139Z,6.75
2023-01-17T02:34:20.524Z,8.98
2023-01-17T02:37:04.660Z,8.88
2023-01-17T02:39:38.477Z,8.07
2023-01-17T02:42:16.677Z,8.27
2023-01-17T02:44:44.996Z,7.60
2023-01-17T02:47:26.286Z,7.75
2023-01-17T02:49:58.209Z,7.50
2023-01-17T02:53:09.864Z,5.05
2023-01-17T02:55:58.066Z,8.88
2023-01-17T02:58:40.114Z,7.47
2023-01-17T03:01:16.094Z,6.28
2023-01-17T03:04:03.048Z,7.93
2023-01-17T03:07:05.870Z,6.28
2023-01-17T03:09:33.955Z,6.38
2023-01-17T03:12:01.447Z,5.90
2023-01-17T03:14:31.699Z,10.02
2023-01-17T03:16:59.433Z,5.78
2023-01-17T03:19:27.007Z,7.97
2023-01-17T03:24:21.954Z,7.53
2023-01-17T03:26:49.642Z,6.25
2023-01-17T03:29:17.140Z,6.80
2023-01-17T03:31:44.604Z,6.90
2023-01-17T03:44:01.064Z,7.53
2023-01-17T03:48:56.289Z,8.10
2023-01-17T03:53:52.135Z,7.63
2023-01-17T03:56:19.990Z,8.13
2023-01-17T03:58:47.669Z,6.38
2023-01-17T04:01:15.244Z,6.97
2023-01-17T04:03:42.875Z,4.68
2023-01-17T04:18:26.883Z,6.72
2023-01-17T04:20:54.275Z,5.22
2023-01-17T04:28:16.615Z,6.18
2023-01-17T04:30:44.090Z,5.65
2023-01-17T04:33:11.553Z,4.05
2023-01-17T04:45:28.289Z,4.95
2023-01-17T04:50:22.802Z,1.77
2023-01-17T04:52:50.268Z,0.80
2023-01-17T04:55:17.854Z,1.33
2023-01-17T04:57:45.557Z,1.17
2023-01-17T05:00:13.978Z,2.92
2023-01-17T05:02:41.544Z,1.58
2023-01-17T05:07:36.457Z,0.80
2023-01-17T05:10:04.588Z,0.90
2023-01-17T05:12:32.234Z,1.20
2023-01-17T05:14:59.684Z,0.88
2023-01-17T05:24:49.085Z,1.95
2023-01-17T05:27:16.607Z,0.90
2023-01-17T05:32:11.524Z,0.75
2023-01-17T05:34:39.086Z,1.30
2023-01-17T05:37:06.610Z,0.93
2023-01-17T05:42:01.513Z,1.50
2023-01-17T05:44:28.872Z,1.13
2023-01-17T05:46:56.634Z,2.05
2023-01-17T05:49:24.125Z,1.45
2023-01-17T05:54:22.306Z,1.42
2023-01-17T05:56:49.801Z,1.95
2023-01-17T06:02:03.549Z,2.08
2023-01-17T06:04:31.162Z,1.75
2023-01-17T06:06:58.684Z,1.65
2023-01-17T06:09:26.043Z,2.70
2023-01-17T06:19:15.389Z,2.20
2023-01-17T06:24:10.248Z,3.60
2023-01-17T06:26:37.852Z,1.67
2023-01-17T06:31:32.692Z,1.80
2023-01-17T06:36:29.493Z,3.53
2023-01-17T06:38:57.170Z,3.05
2023-01-17T06:41:26.046Z,2.20
2023-01-17T06:43:54.124Z,3.42
2023-01-17T06:46:23.364Z,2.25
2023-01-17T06:48:50.805Z,3.10
2023-01-17T06:56:13.067Z,3.42
2023-01-17T07:01:12.949Z,3.65
2023-01-17T07:03:40.859Z,2.85
2023-01-17T07:06:09.625Z,2.90
2023-01-17T07:08:37.263Z,2.00
2023-01-17T07:13:40.211Z,1.60
2023-01-17T07:16:09.269Z,1.77
2023-01-17T07:18:36.660Z,3.40
2023-01-17T07:28:27.946Z,5.93
2023-01-17T07:30:55.528Z,5.80
2023-01-17T07:33:23.254Z,4.88
2023-01-17T07:35:51.133Z,4.22
2023-01-17T07:38:22.351Z,4.05
2023-01-17T07:40:51.258Z,2.17
2023-01-17T07:43:18.658Z,3.33
2023-01-17T07:48:15.787Z,2.25
2023-01-17T07:50:43.300Z,3.75
2023-01-17T07:55:38.320Z,3.75
2023-01-17T07:58:05.851Z,1.98
2023-01-17T08:03:03.945Z,4.03
2023-01-17T08:05:32.054Z,4.82
2023-01-17T08:07:59.560Z,2.17
2023-01-17T08:10:27.257Z,3.65
2023-01-17T08:12:55.470Z,4.18
2023-01-17T08:15:23.800Z,3.58
2023-01-17T08:17:54.719Z,2.78
2023-01-17T08:20:22.404Z,3.53
2023-01-17T08:22:53.494Z,3.25
2023-01-17T08:25:21.323Z,4.57
2023-01-17T08:27:48.725Z,4.65
2023-01-17T08:32:43.751Z,3.17
2023-01-17T08:35:11.441Z,6.82
2023-01-17T08:37:39.342Z,4.20
2023-01-17T08:40:08.846Z,4.25
2023-01-17T08:42:39.427Z,2.90
2023-01-17T08:45:09.995Z,4.43
2023-01-17T08:47:37.966Z,4.88
2023-01-17T08:50:07.002Z,4.47
2023-01-17T08:52:34.694Z,3.90
2023-01-17T08:57:29.578Z,3.72
2023-01-17T08:59:57.098Z,3.03
2023-01-17T09:02:24.872Z,2.33
2023-01-17T09:04:52.324Z,4.13
2023-01-17T09:09:49.013Z,2.78
2023-01-17T09:12:16.524Z,4.88
2023-01-17T09:19:48.060Z,5.70
2023-01-17T09:22:15.727Z,3.53
2023-01-17T09:24:43.486Z,5.35
2023-01-17T09:27:11.281Z,3.28
2023-01-17T09:29:38.840Z,2.05
2023-01-17T09:32:06.508Z,4.05
2023-01-17T09:37:01.081Z,2.47
2023-01-17T09:39:28.418Z,1.90
2023-01-17T09:44:43.130Z,2.25
2023-01-17T09:47:19.990Z,3.25
2023-01-17T09:49:47.799Z,3.17
2023-01-17T09:52:21.113Z,2.63
2023-01-17T09:54:50.160Z,2.50
2023-01-17T09:57:38.856Z,2.40
2023-01-17T10:00:41.656Z,3.55
2023-01-17T10:03:17.223Z,3.13
2023-01-17T10:05:58.703Z,2.40
2023-01-17T10:08:33.939Z,3.13
2023-01-17T10:11:22.788Z,5.25
2023-01-17T10:14:05.874Z,3.38
2023-01-17T10:16:41.326Z,5.45
2023-01-17T10:19:36.802Z,4.07
2023-01-17T10:22:33.767Z,4.78
2023-01-17T10:27:58.472Z,4.85
2023-01-17T10:30:43.592Z,5.38
2023-01-17T10:33:18.592Z,2.97
2023-01-17T10:36:05.946Z,3.35
2023-01-17T10:38:38.964Z,3.63
2023-01-17T10:41:17.934Z,5.30
2023-01-17T10:44:13.239Z,2.47
2023-01-17T10:46:52.963Z,2.58
2023-01-17T10:49:23.814Z,2.97
2023-01-17T10:52:00.192Z,4.13
2023-01-17T10:54:46.510Z,3.28
2023-01-17T10:57:19.692Z,3.10
2023-01-17T10:59:47.261Z,3.05
2023-01-17T11:02:29.311Z,2.13
2023-01-17T11:05:02.294Z,3.95
2023-01-17T11:07:30.094Z,4.13
2023-01-17T11:09:59.452Z,3.45
2023-01-17T11:12:41.301Z,3.47
2023-01-17T11:15:08.835Z,4.70
2023-01-17T11:20:32.979Z,4.18
2023-01-17T11:23:21.824Z,3.58
2023-01-17T11:25:55.487Z,2.22
2023-01-17T11:28:26.598Z,2.55
2023-01-17T11:31:23.219Z,3.33
2023-01-17T11:34:06.522Z,3.67
2023-01-17T11:36:34.561Z,2.78
2023-01-17T11:39:14.139Z,3.92
2023-01-17T11:41:42.375Z,3.83
2023-01-17T11:44:23.169Z,2.38
2023-01-17T11:47:11.566Z,3.72
2023-01-17T11:49:44.471Z,5.90
2023-01-17T11:52:26.382Z,3.22
2023-01-17T11:54:55.433Z,6.07
2023-01-17T11:57:35.335Z,4.60
2023-01-17T12:00:19.494Z,5.43
2023-01-17T12:03:10.906Z,5.10
2023-01-17T12:05:58.539Z,3.13
2023-01-17T12:09:10.647Z,6.88
2023-01-17T12:12:04.522Z,2.08
2023-01-17T12:15:07.406Z,2.38
2023-01-17T12:17:59.875Z,4.35
2023-01-17T12:20:41.715Z,3.72
2023-01-17T12:23:27.984Z,2.80
2023-01-17T12:25:55.397Z,4.55
2023-01-17T12:28:41.209Z,4.15
2023-01-17T12:31:21.185Z,5.93
2023-01-17T12:34:21.079Z,4.18
2023-01-17T12:36:51.426Z,2.95
2023-01-17T12:39:26.236Z,2.55
2023-01-17T12:42:06.923Z,4.57
2023-01-17T12:44:55.773Z,6.47
2023-01-17T12:47:23.599Z,5.45
2023-01-17T12:50:03.320Z,3.05
2023-01-17T12:52:49.144Z,2.88
2023-01-17T12:55:22.165Z,5.07
2023-01-17T12:57:58.661Z,9.48
2023-01-17T13:00:29.929Z,3.90
2023-01-17T13:03:29.925Z,6.65
2023-01-17T13:05:58.080Z,4.88
2023-01-17T13:08:46.605Z,6.30
2023-01-17T13:11:31.178Z,4.65
2023-01-17T13:14:00.009Z,6.63
2023-01-17T13:16:42.186Z,6.07
2023-01-17T13:19:25.722Z,4.22
2023-01-17T13:21:54.583Z,5.72
2023-01-17T13:24:25.136Z,2.85
2023-01-17T13:26:55.577Z,5.85
2023-01-17T13:29:32.730Z,4.85
2023-01-17T13:32:15.916Z,5.70
2023-01-17T13:35:05.369Z,4.50
2023-01-17T13:38:10.467Z,3.30
2023-01-17T13:40:54.727Z,5.93
2023-01-17T13:43:30.425Z,4.60
2023-01-17T13:46:01.359Z,4.85
2023-01-17T13:48:30.815Z,3.53
2023-01-17T13:51:03.174Z,7.88
2023-01-17T13:53:34.415Z,6.65
2023-01-17T13:56:12.935Z,6.75
2023-01-17T13:58:54.734Z,9.45
2023-01-17T14:01:22.310Z,5.63
2023-01-17T14:03:52.750Z,6.05
2023-01-17T14:06:52.995Z,5.82
2023-01-17T14:09:43.060Z,2.70
2023-01-17T14:12:10.602Z,7.45
2023-01-17T14:17:20.729Z,4.82
2023-01-17T14:19:54.525Z,8.43
2023-01-17T14:22:21.987Z,4.90
2023-01-17T14:25:18.056Z,8.77
2023-01-17T14:27:46.953Z,5.28
2023-01-17T14:30:17.939Z,3.47
2023-01-17T14:33:08.833Z,7.55
2023-01-17T14:35:48.968Z,4.97
2023-01-17T14:38:21.118Z,5.95
2023-01-17T14:40:55.199Z,6.93
2023-01-17T14:43:25.832Z,5.35
2023-01-17T14:45:59.073Z,6.97
2023-01-17T14:48:28.369Z,4.95
2023-01-17T14:51:00.041Z,6.75
2023-01-17T14:53:32.173Z,7.55
2023-01-17T14:56:15.466Z,3.15
2023-01-17T14:58:43.197Z,4.50
2023-01-17T15:01:16.207Z,6.40
2023-01-17T15:03:46.549Z,3.92
2023-01-17T15:06:26.819Z,7.00
2023-01-17T15:08:54.643Z,5.10
2023-01-17T15:11:27.876Z,4.78
2023-01-17T15:13:57.881Z,4.32
2023-01-17T15:16:28.898Z,6.70
2023-01-17T15:18:57.486Z,10.77
2023-01-17T15:21:28.194Z,9.93
2023-01-17T15:23:59.398Z,7.60
2023-01-17T15:26:30.154Z,6.38
2023-01-17T15:29:06.276Z,7.60
2023-01-17T15:31:43.471Z,9.60
2023-01-17T15:34:24.942Z,9.35
2023-01-17T15:36:53.190Z,8.15
2023-01-17T15:39:27.768Z,7.32
2023-01-17T15:41:57.888Z,6.28
2023-01-17T15:44:46.831Z,10.88
2023-01-17T15:47:35.924Z,8.27
2023-01-17T15:50:28.617Z,9.55
2023-01-17T15:53:05.339Z,7.22
2023-01-17T15:55:39.585Z,5.72
2023-01-17T15:58:26.068Z,1.85
2023-01-17T16:00:54.168Z,4.18
2023-01-17T16:03:21.811Z,2.58
2023-01-17T16:05:50.661Z,3.13
2023-01-17T16:08:38.784Z,4.13
2023-01-17T16:11:09.788Z,4.93
2023-01-17T16:13:43.425Z,2.55
2023-01-17T16:16:19.511Z,3.25
2023-01-17T16:18:49.353Z,5.47
2023-01-17T16:21:23.081Z,1.98
2023-01-17T16:23:51.177Z,2.25
2023-01-17T16:26:19.286Z,5.22
2023-01-17T16:28:47.332Z,4.13
2023-01-17T16:31:15.383Z,3.83
2023-01-17T16:33:43.244Z,4.85
2023-01-17T16:36:13.263Z,4.45
2023-01-17T16:38:41.342Z,2.10
2023-01-17T16:41:08.917Z,2.50
2023-01-17T16:43:36.839Z,5.25
2023-01-17T16:46:04.924Z,1.48
2023-01-17T16:48:32.442Z,4.93
2023-01-17T16:55:59.314Z,6.18
2023-01-17T16:58:26.937Z,5.15
2023-01-17T17:03:24.230Z,10.43
2023-01-17T17:08:24.154Z,8.05
2023-01-17T17:10:51.869Z,8.40
2023-01-17T17:13:19.391Z,5.95
2023-01-17T17:15:47.093Z,8.65
2023-01-17T17:18:16.968Z,7.32
2023-01-17T17:20:45.345Z,10.48
2023-01-17T17:23:12.939Z,9.98
2023-01-17T17:25:40.549Z,7.75
2023-01-17T17:28:08.950Z,7.70
2023-01-17T17:30:36.714Z,11.50
2023-01-17T17:33:04.823Z,6.05
2023-01-17T17:35:35.251Z,12.77
2023-01-17T17:38:02.794Z,13.10
2023-01-17T17:42:57.310Z,7.13
2023-01-17T17:45:24.848Z,10.77
2023-01-17T17:47:52.847Z,9.30
2023-01-17T17:50:20.403Z,10.85
2023-01-17T17:55:19.062Z,14.48
2023-01-17T17:57:46.833Z,11.40
2023-01-17T18:00:14.646Z,10.32
2023-01-17T18:02:42.100Z,14.85
2023-01-17T18:05:10.044Z,11.75
2023-01-17T18:07:37.566Z,11.95
2023-01-17T18:10:05.575Z,10.02
2023-01-17T18:12:33.024Z,12.35
2023-01-17T18:15:00.466Z,10.73
2023-01-17T18:19:55.327Z,8.05
2023-01-17T18:22:22.924Z,10.18
2023-01-17T18:27:17.783Z,8.93
2023-01-17T18:32:13.303Z,3.97
2023-01-17T18:34:42.378Z,2.95
2023-01-17T18:37:10.834Z,1.73
2023-01-17T18:39:38.291Z,2.47
2023-01-17T18:49:33.700Z,1.73
2023-01-17T18:52:01.455Z,2.10
2023-01-17T18:54:29.059Z,2.05
2023-01-17T18:59:24.016Z,1.52
2023-01-17T19:01:52.267Z,2.33
2023-01-17T19:04:25.045Z,3.45
2023-01-17T19:07:08.264Z,2.42
2023-01-17T19:09:35.828Z,1.60
2023-01-17T19:14:30.632Z,3.35
2023-01-17T19:16:58.087Z,4.78
2023-01-17T19:24:20.233Z,3.03
2023-01-17T19:29:18.924Z,3.20
2023-01-17T19:31:46.366Z,4.95
2023-01-17T19:36:42.626Z,3.08
2023-01-17T19:39:13.590Z,2.83
2023-01-17T19:41:47.365Z,5.30
2023-01-17T19:44:15.241Z,2.35
2023-01-17T19:46:43.879Z,4.15
2023-01-17T19:49:11.469Z,3.47
2023-01-17T19:54:08.531Z,3.97
2023-01-17T19:56:36.740Z,4.18
2023-01-17T19:59:04.591Z,3.33
2023-01-17T20:01:33.496Z,2.65
2023-01-17T20:04:02.958Z,3.08
2023-01-17T20:06:33.103Z,3.83
2023-01-17T20:09:01.023Z,6.00
2023-01-17T20:11:29.859Z,7.38
2023-01-17T20:13:58.997Z,4.28
2023-01-17T20:16:29.280Z,4.28
2023-01-17T20:18:58.188Z,5.55
2023-01-17T20:21:27.835Z,7.10
2023-01-17T20:23:57.510Z,7.32
2023-01-17T20:26:31.293Z,8.07
2023-01-17T20:28:59.179Z,5.53
2023-01-17T20:31:28.533Z,10.13
2023-01-17T20:33:56.453Z,7.40
2023-01-17T20:36:26.316Z,7.72
2023-01-17T20:38:54.671Z,6.60
2023-01-17T20:41:24.186Z,8.00
2023-01-17T20:43:54.242Z,8.10
2023-01-17T20:46:24.955Z,8.95
2023-01-17T20:48:55.218Z,11.88
2023-01-17T20:51:25.460Z,7.03
2023-01-17T20:53:56.537Z,8.40
2023-01-17T20:56:25.163Z,6.45
2023-01-17T20:58:56.230Z,14.00
2023-01-17T21:01:24.144Z,10.35
2023-01-17T21:03:54.060Z,8.38
2023-01-17T21:06:24.572Z,7.72
2023-01-17T21:08:52.965Z,9.10
2023-01-17T21:11:23.560Z,8.80
2023-01-17T21:13:51.939Z,10.35
2023-01-17T21:16:22.989Z,9.50
2023-01-17T21:18:51.745Z,7.95
2023-01-17T21:21:25.401Z,9.70
2023-01-17T21:23:55.372Z,9.77
2023-01-17T21:26:25.818Z,10.63
2023-01-17T21:28:54.318Z,8.90
2023-01-17T21:31:27.915Z,8.80
2023-01-17T21:34:04.053Z,10.75
2023-01-17T21:36:34.557Z,9.02
2023-01-17T21:39:05.031Z,8.68
2023-01-17T21:41:36.016Z,7.47
2023-01-17T21:44:11.870Z,6.05
2023-01-17T21:46:40.843Z,6.80
2023-01-17T21:49:13.066Z,8.90
2023-01-17T21:51:54.182Z,5.75
2023-01-17T21:54:43.473Z,7.72
2023-01-17T21:57:31.354Z,10.68
2023-01-17T21:59:58.842Z,9.02
2023-01-17T22:04:54.774Z,6.18
2023-01-17T22:07:22.570Z,8.50
2023-01-17T22:09:50.064Z,8.82
2023-01-17T22:14:44.940Z,6.78
2023-01-17T22:17:12.391Z,5.22
2023-01-17T22:24:34.697Z,13.73
2023-01-17T22:27:02.094Z,10.30
2023-01-17T22:29:29.790Z,6.65
2023-01-17T22:36:51.886Z,8.52
2023-01-17T22:39:19.477Z,6.10
2023-01-17T22:49:13.518Z,11.00
2023-01-17T22:51:41.246Z,8.13
2023-01-17T22:54:09.019Z,8.07
2023-01-17T22:56:36.584Z,10.85
2023-01-17T22:59:05.793Z,9.27
2023-01-17T23:01:33.327Z,11.45
2023-01-17T23:06:37.261Z,8.32
2023-01-17T23:09:08.417Z,9.98
2023-01-17T23:11:41.238Z,10.25
2023-01-17T23:14:22.308Z,8.68
2023-01-17T23:17:14.466Z,10.20
2023-01-17T23:19:53.588Z,15.35
2023-01-17T23:22:27.110Z,11.63
2023-01-17T23:24:56.606Z,12.98
2023-01-17T23:27:44.334Z,8.48
2023-01-17T23:30:13.527Z,6.45
2023-01-17T23:32:45.674Z,7.60
2023-01-17T23:35:13.939Z,8.35
2023-01-17T23:38:01.629Z,5.13
2023-01-17T23:40:31.345Z,6.28
2023-01-17T23:43:17.733Z,3.17
2023-01-17T23:45:45.195Z,6.47
2023-01-17T23:48:12.730Z,3.95
2023-01-17T23:50:42.748Z,6.05
2023-01-17T23:53:12.036Z,7.75
2023-01-17T23:55:41.174Z,6.47
2023-01-17T23:58:11.116Z,4.80
